createdAt,value
2023-05-22T00:01:18.235Z,-79
2023-05-22T00:03:46.497Z,-78
2023-05-22T00:06:13.837Z,-77
2023-05-22T00:08:41.133Z,-78
2023-05-22T00:11:08.706Z,-78
2023-05-22T00:13:36.052Z,-78
2023-05-22T00:16:03.461Z,-78
2023-05-22T00:19:30.196Z,-78
2023-05-22T00:22:02.771Z,-77
2023-05-22T00:24:30.400Z,-78
2023-05-22T00:26:58.088Z,-77
2023-05-22T00:29:25.906Z,-77
2023-05-22T00:31:53.373Z,-77
2023-05-22T00:34:20.792Z,-77
2023-05-22T00:36:48.079Z,-78
2023-05-22T00:39:15.396Z,-78
2023-05-22T00:41:42.884Z,-77
2023-05-22T00:44:10.327Z,-78
2023-05-22T00:46:37.919Z,-78
2023-05-22T00:49:05.424Z,-78
2023-05-22T00:51:33.427Z,-78
2023-05-22T00:54:01.371Z,-78
2023-05-22T00:56:29.165Z,-78
2023-05-22T00:58:56.755Z,-78
2023-05-22T01:01:24.744Z,-77
2023-05-22T01:03:53.416Z,-78
2023-05-22T01:06:20.998Z,-80
2023-05-22T01:08:48.450Z,-78
2023-05-22T01:11:37.795Z,-78
2023-05-22T01:14:23.556Z,-78
2023-05-22T01:17:16.499Z,-79
2023-05-22T01:20:27.028Z,-78
2023-05-22T01:23:49.703Z,-78
2023-05-22T01:26:43.814Z,-77
2023-05-22T01:29:44.018Z,-78
2023-05-22T01:32:17.456Z,-78
2023-05-22T01:34:50.070Z,-78
2023-05-22T01:37:19.920Z,-78
2023-05-22T01:39:48.191Z,-78
2023-05-22T01:42:15.858Z,-79
2023-05-22T01:44:43.623Z,-78
2023-05-22T01:47:10.969Z,-79
2023-05-22T01:49:38.753Z,-78
2023-05-22T01:52:24.085Z,-78
2023-05-22T01:55:05.569Z,-77
2023-05-22T01:58:15.151Z,-78
2023-05-22T02:00:47.070Z,-78
2023-05-22T02:03:25.247Z,-78
2023-05-22T02:05:55.280Z,-78
2023-05-22T02:08:24.666Z,-78
2023-05-22T02:10:55.253Z,-78
2023-05-22T02:13:23.731Z,-77
2023-05-22T02:15:52.550Z,-78
2023-05-22T02:18:20.252Z,-77
2023-05-22T02:20:47.889Z,-77
2023-05-22T02:23:15.599Z,-77
2023-05-22T02:25:43.298Z,-77
2023-05-22T02:28:10.889Z,-77
2023-05-22T02:30:38.856Z,-77
2023-05-22T02:33:06.726Z,-78
2023-05-22T02:35:34.830Z,-78
2023-05-22T02:38:02.561Z,-78
2023-05-22T02:40:30.286Z,-77
2023-05-22T02:42:57.901Z,-78
2023-05-22T02:45:25.670Z,-78
2023-05-22T02:47:53.362Z,-79
2023-05-22T02:50:30.108Z,-76
2023-05-22T02:52:57.985Z,-77
2023-05-22T02:55:25.668Z,-77
2023-05-22T02:57:53.312Z,-77
2023-05-22T03:00:21.248Z,-78
2023-05-22T03:02:49.298Z,-79
2023-05-22T03:05:17.291Z,-78
2023-05-22T03:07:48.330Z,-78
2023-05-22T03:10:17.404Z,-79
2023-05-22T03:13:03.529Z,-79
2023-05-22T03:15:31.231Z,-79
2023-05-22T03:17:58.890Z,-79
2023-05-22T03:20:26.623Z,-80
2023-05-22T03:22:54.514Z,-82
2023-05-22T03:25:22.133Z,-78
2023-05-22T03:27:50.118Z,-79
2023-05-22T03:30:17.829Z,-79
2023-05-22T03:32:45.641Z,-79
2023-05-22T03:35:13.390Z,-77
2023-05-22T03:37:41.144Z,-80
2023-05-22T03:40:09.178Z,-79
2023-05-22T03:42:36.809Z,-79
2023-05-22T03:45:04.720Z,-79
2023-05-22T03:47:32.372Z,-79
2023-05-22T03:50:00.138Z,-77
2023-05-22T03:52:27.852Z,-79
2023-05-22T03:54:55.759Z,-78
2023-05-22T03:57:23.387Z,-79
2023-05-22T03:59:51.391Z,-78
2023-05-22T04:02:19.325Z,-79
2023-05-22T04:04:47.448Z,-78
2023-05-22T04:07:15.104Z,-77
2023-05-22T04:09:42.770Z,-78
2023-05-22T04:12:10.867Z,-78
2023-05-22T04:14:38.517Z,-78
2023-05-22T04:17:06.498Z,-79
2023-05-22T04:19:34.406Z,-78
2023-05-22T04:22:02.176Z,-76
2023-05-22T04:24:30.032Z,-77
2023-05-22T04:26:57.694Z,-78
2023-05-22T04:29:25.393Z,-80
2023-05-22T04:31:53.313Z,-78
2023-05-22T04:34:21.137Z,-78
2023-05-22T04:36:48.849Z,-76
2023-05-22T04:39:16.603Z,-78
2023-05-22T04:41:44.283Z,-78
2023-05-22T04:44:11.865Z,-79
2023-05-22T04:46:39.584Z,-77
2023-05-22T04:49:07.249Z,-78
2023-05-22T04:51:34.947Z,-77
2023-05-22T04:54:02.894Z,-75
2023-05-22T04:56:36.308Z,-78
2023-05-22T04:59:04.985Z,-78
2023-05-22T05:01:33.651Z,-80
2023-05-22T05:04:03.911Z,-77
2023-05-22T05:06:31.730Z,-81
2023-05-22T05:08:59.588Z,-79
2023-05-22T05:11:27.205Z,-78
2023-05-22T05:13:54.854Z,-78
2023-05-22T05:16:26.170Z,-79
2023-05-22T05:18:54.023Z,-78
2023-05-22T05:21:21.752Z,-76
2023-05-22T05:23:49.433Z,-77
2023-05-22T05:26:17.097Z,-80
2023-05-22T05:28:45.123Z,-78
2023-05-22T05:31:27.786Z,-79
2023-05-22T05:33:55.524Z,-79
2023-05-22T05:36:25.095Z,-79
2023-05-22T05:38:52.839Z,-79
2023-05-22T05:41:20.844Z,-80
2023-05-22T05:43:48.758Z,-80
2023-05-22T05:46:16.732Z,-78
2023-05-22T05:48:44.508Z,-78
2023-05-22T05:51:12.267Z,-77
2023-05-22T05:53:40.061Z,-78
2023-05-22T05:56:08.815Z,-77
2023-05-22T05:58:36.690Z,-80
2023-05-22T06:01:04.751Z,-78
2023-05-22T06:03:32.562Z,-78
2023-05-22T06:06:00.340Z,-80
2023-05-22T06:08:27.993Z,-80
2023-05-22T06:10:55.728Z,-80
2023-05-22T06:13:23.448Z,-78
2023-05-22T06:15:51.262Z,-79
2023-05-22T06:18:19.051Z,-79
2023-05-22T06:20:47.024Z,-79
2023-05-22T06:23:15.371Z,-79
2023-05-22T06:25:43.582Z,-78
2023-05-22T06:28:11.230Z,-80
2023-05-22T06:30:40.525Z,-79
2023-05-22T06:33:08.541Z,-77
2023-05-22T06:35:36.231Z,-77
2023-05-22T06:38:04.005Z,-78
2023-05-22T06:40:31.697Z,-77
2023-05-22T06:42:59.449Z,-79
2023-05-22T06:45:27.294Z,-76
2023-05-22T06:47:55.392Z,-74
2023-05-22T06:50:23.114Z,-77
2023-05-22T06:52:50.816Z,-78
2023-05-22T06:55:18.717Z,-80
2023-05-22T06:57:46.393Z,-78
2023-05-22T07:00:14.381Z,-78
2023-05-22T07:08:24.439Z,-79
2023-05-22T07:10:52.019Z,-78
2023-05-22T07:13:19.430Z,-78
2023-05-22T07:15:47.129Z,-78
2023-05-22T07:18:14.740Z,-79
2023-05-22T07:20:42.405Z,-80
2023-05-22T07:23:10.026Z,-77
2023-05-22T07:25:37.309Z,-79
2023-05-22T07:28:04.665Z,-78
2023-05-22T07:30:32.215Z,-79
2023-05-22T07:32:59.519Z,-77
2023-05-22T07:35:27.039Z,-78
2023-05-22T07:37:54.324Z,-80
2023-05-22T07:40:21.887Z,-77
2023-05-22T07:42:49.601Z,-80
2023-05-22T07:45:17.118Z,-77
2023-05-22T07:47:44.501Z,-76
2023-05-22T07:50:12.234Z,-76
2023-05-22T07:52:39.912Z,-75
2023-05-22T07:55:08.095Z,-78
2023-05-22T07:57:35.484Z,-79
2023-05-22T08:00:04.800Z,-79
2023-05-22T08:02:32.073Z,-79
2023-05-22T08:04:59.550Z,-78
2023-05-22T08:07:27.049Z,-78
2023-05-22T08:09:54.345Z,-77
2023-05-22T08:12:21.776Z,-79
2023-05-22T08:14:49.121Z,-77
2023-05-22T08:17:16.537Z,-79
2023-05-22T08:19:44.256Z,-78
2023-05-22T08:22:11.854Z,-80
2023-05-22T08:24:39.346Z,-81
2023-05-22T08:27:06.818Z,-78
2023-05-22T08:29:34.279Z,-79
2023-05-22T08:32:01.694Z,-78
2023-05-22T08:34:29.138Z,-77
2023-05-22T08:36:56.506Z,-78
2023-05-22T08:39:23.912Z,-77
2023-05-22T08:41:52.146Z,-79
2023-05-22T08:44:19.534Z,-80
2023-05-22T08:46:47.417Z,-76
2023-05-22T08:49:17.250Z,-75
2023-05-22T08:51:51.509Z,-78
2023-05-22T08:54:23.299Z,-80
2023-05-22T08:56:56.706Z,-79
2023-05-22T08:59:25.274Z,-78
2023-05-22T09:01:54.776Z,-77
2023-05-22T09:04:24.478Z,-78
2023-05-22T09:06:53.252Z,-77
2023-05-22T09:09:20.543Z,-77
2023-05-22T09:11:48.124Z,-80
2023-05-22T09:14:15.658Z,-79
2023-05-22T09:16:48.909Z,-78
2023-05-22T09:19:16.626Z,-80
2023-05-22T09:21:44.425Z,-81
2023-05-22T09:24:12.490Z,-79
2023-05-22T09:26:40.693Z,-81
2023-05-22T09:29:08.941Z,-79
2023-05-22T09:31:44.290Z,-79
2023-05-22T09:34:12.591Z,-80
2023-05-22T09:36:41.085Z,-79
2023-05-22T09:39:08.640Z,-76
2023-05-22T09:41:38.695Z,-79
2023-05-22T09:44:16.626Z,-76
2023-05-22T09:46:48.063Z,-78
2023-05-22T09:49:16.808Z,-80
2023-05-22T09:51:46.617Z,-79
2023-05-22T09:54:16.081Z,-80
2023-05-22T09:56:48.473Z,-79
2023-05-22T09:59:22.442Z,-79
2023-05-22T10:01:51.070Z,-76
2023-05-22T10:04:21.857Z,-77
2023-05-22T10:06:54.540Z,-78
2023-05-22T10:09:31.482Z,-79
2023-05-22T10:12:03.234Z,-76
2023-05-22T10:14:31.162Z,-77
2023-05-22T10:17:00.260Z,-77
2023-05-22T10:19:28.680Z,-77
2023-05-22T10:21:59.932Z,-78
2023-05-22T10:24:28.816Z,-77
2023-05-22T10:26:57.844Z,-78
2023-05-22T10:29:55.601Z,-75
2023-05-22T10:32:25.863Z,-77
2023-05-22T10:35:17.655Z,-76
2023-05-22T10:37:56.650Z,-76
2023-05-22T10:40:36.165Z,-78
2023-05-22T10:43:04.251Z,-76
2023-05-22T10:45:31.879Z,-77
2023-05-22T10:48:08.005Z,-75
2023-05-22T10:50:40.248Z,-77
2023-05-22T10:53:28.837Z,-76
2023-05-22T10:56:09.323Z,-76
2023-05-22T10:58:38.841Z,-77
2023-05-22T11:01:30.481Z,-77
2023-05-22T11:04:06.928Z,-79
2023-05-22T11:07:04.391Z,-77
2023-05-22T11:09:41.188Z,-77
2023-05-22T11:12:30.914Z,-77
2023-05-22T11:15:05.506Z,-77
2023-05-22T11:17:48.868Z,-77
2023-05-22T11:20:22.114Z,-75
2023-05-22T11:23:06.089Z,-75
2023-05-22T11:25:39.456Z,-75
2023-05-22T11:28:08.639Z,-75
2023-05-22T11:30:37.383Z,-78
2023-05-22T11:33:05.804Z,-76
2023-05-22T11:35:33.266Z,-78
2023-05-22T11:38:06.228Z,-76
2023-05-22T11:40:34.595Z,-75
2023-05-22T11:43:02.423Z,-77
2023-05-22T11:45:29.990Z,-76
2023-05-22T11:47:57.602Z,-76
2023-05-22T11:50:40.360Z,-78
2023-05-22T11:53:09.792Z,-75
2023-05-22T11:55:37.199Z,-76
2023-05-22T11:58:04.513Z,-76
2023-05-22T12:00:32.267Z,-76
2023-05-22T12:02:59.814Z,-79
2023-05-22T12:05:27.451Z,-75
2023-05-22T12:07:55.103Z,-78
2023-05-22T12:10:22.818Z,-75
2023-05-22T12:12:50.269Z,-76
2023-05-22T12:15:20.783Z,-77
2023-05-22T12:17:48.548Z,-76
2023-05-22T12:20:16.095Z,-78
2023-05-22T12:22:44.121Z,-80
2023-05-22T12:25:15.729Z,-79
2023-05-22T12:27:45.166Z,-78
2023-05-22T12:30:16.619Z,-75
2023-05-22T12:32:50.296Z,-78
2023-05-22T12:35:19.504Z,-76
2023-05-22T12:37:52.272Z,-77
2023-05-22T12:40:19.836Z,-76
2023-05-22T12:42:49.063Z,-79
2023-05-22T12:45:25.051Z,-76
2023-05-22T12:47:52.392Z,-77
2023-05-22T12:50:19.799Z,-76
2023-05-22T12:52:47.177Z,-76
2023-05-22T12:55:14.753Z,-77
2023-05-22T12:57:42.036Z,-77
2023-05-22T13:00:10.251Z,-76
2023-05-22T13:02:37.674Z,-75
2023-05-22T13:05:05.659Z,-77
2023-05-22T13:07:33.126Z,-76
2023-05-22T13:10:00.368Z,-77
2023-05-22T13:12:27.948Z,-78
2023-05-22T13:14:55.457Z,-75
2023-05-22T13:17:24.316Z,-76
2023-05-22T13:19:55.152Z,-78
2023-05-22T13:22:25.560Z,-77
2023-05-22T13:24:52.985Z,-75
2023-05-22T13:27:20.517Z,-78
2023-05-22T13:29:47.898Z,-76
2023-05-22T13:32:15.481Z,-79
2023-05-22T13:34:42.956Z,-73
2023-05-22T13:37:10.532Z,-78
2023-05-22T13:39:38.162Z,-78
2023-05-22T13:42:06.091Z,-78
2023-05-22T13:44:33.784Z,-78
2023-05-22T13:47:01.187Z,-77
2023-05-22T13:49:28.545Z,-77
2023-05-22T13:51:55.867Z,-78
2023-05-22T13:54:23.205Z,-79
2023-05-22T13:56:50.645Z,-78
2023-05-22T13:59:18.073Z,-79
2023-05-22T14:01:45.995Z,-77
2023-05-22T14:04:14.576Z,-77
2023-05-22T14:06:43.011Z,-77
2023-05-22T14:09:10.613Z,-76
2023-05-22T14:11:38.009Z,-78
2023-05-22T14:14:05.504Z,-77
2023-05-22T14:16:33.395Z,-78
2023-05-22T14:19:01.348Z,-81
2023-05-22T14:21:28.808Z,-83
2023-05-22T14:23:56.190Z,-84
2023-05-22T14:26:23.610Z,-81
2023-05-22T14:28:51.586Z,-75
2023-05-22T14:31:19.013Z,-78
2023-05-22T14:33:46.604Z,-76
2023-05-22T14:36:13.931Z,-78
2023-05-22T14:38:41.391Z,-77
2023-05-22T14:41:08.939Z,-83
2023-05-22T14:43:36.286Z,-82
2023-05-22T14:46:04.069Z,-83
2023-05-22T14:48:31.630Z,-84
2023-05-22T14:50:59.021Z,-81
2023-05-22T14:53:26.281Z,-81
2023-05-22T14:55:53.543Z,-81
2023-05-22T14:58:20.824Z,-83
2023-05-22T15:00:48.180Z,-83
2023-05-22T15:03:15.602Z,-78
2023-05-22T15:05:42.889Z,-84
2023-05-22T15:08:10.410Z,-83
2023-05-22T15:10:37.793Z,-82
2023-05-22T15:13:05.191Z,-83
2023-05-22T15:15:32.564Z,-82
2023-05-22T15:18:00.025Z,-81
2023-05-22T15:20:27.412Z,-83
2023-05-22T15:22:54.802Z,-82
2023-05-22T15:25:22.135Z,-82
2023-05-22T15:27:49.729Z,-83
2023-05-22T15:30:17.714Z,-75
2023-05-22T15:32:45.713Z,-75
2023-05-22T15:35:13.496Z,-76
2023-05-22T15:37:41.349Z,-76
2023-05-22T15:40:09.904Z,-75
2023-05-22T15:42:37.867Z,-77
2023-05-22T15:45:06.142Z,-78
2023-05-22T15:47:33.709Z,-75
2023-05-22T15:50:01.045Z,-76
2023-05-22T15:52:28.402Z,-76
2023-05-22T15:54:57.093Z,-76
2023-05-22T15:57:27.342Z,-73
2023-05-22T15:59:55.152Z,-76
2023-05-22T16:02:22.709Z,-71
2023-05-22T16:04:50.386Z,-82
2023-05-22T16:07:17.808Z,-82
2023-05-22T16:09:45.413Z,-81
2023-05-22T16:12:12.930Z,-81
2023-05-22T16:14:41.131Z,-80
2023-05-22T16:17:09.934Z,-84
2023-05-22T16:19:37.813Z,-83
2023-05-22T16:22:05.526Z,-84
2023-05-22T16:24:32.871Z,-83
2023-05-22T16:27:00.820Z,-84
2023-05-22T16:29:28.345Z,-84
2023-05-22T16:31:57.036Z,-84
2023-05-22T16:34:24.726Z,-85
2023-05-22T16:36:52.051Z,-83
2023-05-22T16:39:22.247Z,-82
2023-05-22T16:41:53.972Z,-83
2023-05-22T16:44:21.619Z,-84
2023-05-22T16:46:49.008Z,-83
2023-05-22T16:49:16.537Z,-76
2023-05-22T16:51:43.974Z,-83
2023-05-22T16:54:11.512Z,-83
2023-05-22T16:56:38.865Z,-84
2023-05-22T16:59:06.093Z,-83
2023-05-22T17:01:33.520Z,-85
2023-05-22T17:04:00.854Z,-76
2023-05-22T17:06:29.119Z,-82
2023-05-22T17:08:56.479Z,-83
2023-05-22T17:11:23.911Z,-84
2023-05-22T17:13:54.092Z,-82
2023-05-22T17:16:21.892Z,-83
2023-05-22T17:18:49.473Z,-82
2023-05-22T17:21:17.059Z,-79
2023-05-22T17:23:44.436Z,-82
2023-05-22T17:26:12.095Z,-82
2023-05-22T17:28:39.375Z,-78
2023-05-22T17:31:06.813Z,-82
2023-05-22T17:33:34.547Z,-82
2023-05-22T17:36:01.899Z,-82
2023-05-22T17:38:29.210Z,-82
2023-05-22T17:40:56.595Z,-80
2023-05-22T17:43:24.005Z,-84
2023-05-22T17:45:51.461Z,-83
2023-05-22T17:48:19.428Z,-84
2023-05-22T17:50:46.814Z,-81
2023-05-22T17:53:14.117Z,-84
2023-05-22T17:55:41.415Z,-85
2023-05-22T17:58:08.951Z,-82
2023-05-22T18:00:36.267Z,-83
2023-05-22T18:03:03.641Z,-77
2023-05-22T18:05:31.238Z,-82
2023-05-22T18:07:58.473Z,-81
2023-05-22T18:10:30.014Z,-80
2023-05-22T18:12:57.737Z,-83
2023-05-22T18:15:25.348Z,-82
2023-05-22T18:17:53.085Z,-83
2023-05-22T18:20:21.386Z,-84
2023-05-22T18:22:49.081Z,-84
2023-05-22T18:25:17.182Z,-83
2023-05-22T18:27:46.049Z,-84
2023-05-22T18:30:14.153Z,-84
2023-05-22T18:32:41.665Z,-85
2023-05-22T18:35:09.942Z,-83
2023-05-22T18:37:37.319Z,-79
2023-05-22T18:40:05.352Z,-83
2023-05-22T18:42:33.036Z,-82
2023-05-22T18:45:00.419Z,-84
2023-05-22T18:47:27.747Z,-84
2023-05-22T18:49:55.056Z,-83
2023-05-22T18:52:22.543Z,-83
2023-05-22T18:54:50.029Z,-83
2023-05-22T18:57:17.490Z,-82
2023-05-22T18:59:44.881Z,-83
2023-05-22T19:02:12.330Z,-83
2023-05-22T19:04:40.786Z,-82
2023-05-22T19:07:08.129Z,-84
2023-05-22T19:09:35.711Z,-83
2023-05-22T19:12:03.199Z,-83
2023-05-22T19:14:30.778Z,-83
2023-05-22T19:16:58.507Z,-83
2023-05-22T19:19:27.264Z,-84
2023-05-22T19:21:54.894Z,-83
2023-05-22T19:24:22.821Z,-83
2023-05-22T19:26:50.285Z,-84
2023-05-22T19:29:17.640Z,-82
2023-05-22T19:31:45.307Z,-82
2023-05-22T19:34:12.732Z,-85
2023-05-22T19:36:41.800Z,-80
2023-05-22T19:39:09.144Z,-84
2023-05-22T19:41:36.643Z,-84
2023-05-22T19:44:04.342Z,-83
2023-05-22T19:46:31.736Z,-81
2023-05-22T19:49:00.645Z,-83
2023-05-22T19:51:28.368Z,-82
2023-05-22T19:53:56.070Z,-78
2023-05-22T19:56:23.856Z,-82
2023-05-22T19:58:51.627Z,-83
2023-05-22T20:01:19.889Z,-83
2023-05-22T20:03:48.087Z,-83
2023-05-22T20:06:16.016Z,-82
2023-05-22T20:08:43.648Z,-84
2023-05-22T20:11:11.748Z,-83
2023-05-22T20:13:42.340Z,-82
2023-05-22T20:16:10.874Z,-82
2023-05-22T20:18:40.404Z,-83
2023-05-22T20:21:08.420Z,-82
2023-05-22T20:23:36.116Z,-83
2023-05-22T20:26:03.523Z,-84
2023-05-22T20:28:30.852Z,-82
2023-05-22T20:30:58.267Z,-85
2023-05-22T20:33:25.692Z,-84
2023-05-22T20:35:53.490Z,-85
2023-05-22T20:38:20.970Z,-85
2023-05-22T20:40:48.352Z,-84
2023-05-22T20:43:15.791Z,-80
2023-05-22T20:45:43.459Z,-85
2023-05-22T20:48:11.961Z,-85
2023-05-22T20:50:40.173Z,-84
2023-05-22T20:53:07.474Z,-82
2023-05-22T20:55:35.128Z,-82
2023-05-22T20:58:02.590Z,-83
2023-05-22T21:00:30.126Z,-83
2023-05-22T21:02:58.563Z,-84
2023-05-22T21:05:26.363Z,-83
2023-05-22T21:07:53.686Z,-85
2023-05-22T21:10:20.981Z,-82
2023-05-22T21:12:48.339Z,-84
2023-05-22T21:15:15.698Z,-85
2023-05-22T21:17:43.083Z,-86
2023-05-22T21:20:11.223Z,-85
2023-05-22T21:22:38.727Z,-83
2023-05-22T21:25:06.893Z,-82
2023-05-22T21:27:34.517Z,-83
2023-05-22T21:30:01.969Z,-83
2023-05-22T21:32:29.283Z,-84
2023-05-22T21:34:56.643Z,-85
2023-05-22T21:37:23.959Z,-84
2023-05-22T21:39:51.539Z,-84
2023-05-22T21:42:19.746Z,-83
2023-05-22T21:44:47.231Z,-84
2023-05-22T21:47:14.979Z,-84
2023-05-22T21:49:42.419Z,-85
2023-05-22T21:52:09.862Z,-83
2023-05-22T21:54:37.559Z,-84
2023-05-22T21:57:05.105Z,-84
2023-05-22T21:59:32.942Z,-84
2023-05-22T22:02:00.293Z,-82
2023-05-22T22:04:27.639Z,-82
2023-05-22T22:06:55.029Z,-83
2023-05-22T22:09:22.333Z,-82
2023-05-22T22:11:49.672Z,-82
2023-05-22T22:14:17.565Z,-84
2023-05-22T22:16:44.918Z,-84
2023-05-22T22:19:12.967Z,-85
2023-05-22T22:21:40.829Z,-84
2023-05-22T22:24:08.226Z,-83
2023-05-22T22:26:36.277Z,-84
2023-05-22T22:29:03.592Z,-82
2023-05-22T22:31:31.029Z,-81
2023-05-22T22:33:58.755Z,-83
2023-05-22T22:36:26.199Z,-82
2023-05-22T22:38:53.632Z,-83
2023-05-22T22:41:21.100Z,-84
2023-05-22T22:43:48.411Z,-83
2023-05-22T22:46:15.748Z,-85
2023-05-22T22:48:43.118Z,-85
2023-05-22T22:51:10.428Z,-84
2023-05-22T22:53:37.923Z,-83
2023-05-22T22:56:05.698Z,-84
2023-05-22T22:58:33.097Z,-85
2023-05-22T23:01:00.569Z,-84
2023-05-22T23:03:28.024Z,-86
2023-05-22T23:05:55.310Z,-82
2023-05-22T23:08:22.725Z,-83
2023-05-22T23:10:50.515Z,-83
2023-05-22T23:13:17.917Z,-83
2023-05-22T23:15:45.409Z,-84
2023-05-22T23:18:12.862Z,-83
2023-05-22T23:20:40.535Z,-83
2023-05-22T23:23:08.252Z,-82
2023-05-22T23:25:35.610Z,-83
2023-05-22T23:28:03.116Z,-84
2023-05-22T23:30:30.442Z,-83
2023-05-22T23:32:57.871Z,-83
2023-05-22T23:35:25.604Z,-83
2023-05-22T23:37:53.304Z,-84
2023-05-22T23:40:20.561Z,-83
2023-05-22T23:42:48.019Z,-85
2023-05-22T23:45:15.339Z,-84
2023-05-22T23:47:42.666Z,-83
2023-05-22T23:50:10.772Z,-82
2023-05-22T23:52:38.157Z,-84
2023-05-22T23:55:06.322Z,-84
2023-05-22T23:57:33.681Z,-84
